Time;durP1;ratioP1;P1;durP2;ratioP2;P2;SDS_P1;SDS_P2;PMS_P1;PMS_P2;Temp;Humidity;BMP_temperature;BMP_pressure;BME280_temperature;BME280_humidity;BME280_pressure;Samples;Min_cycle;Max_cycle;Signal;HPM_P1;HPM_P2
2023/08/12 00:01:21;;;;;;;2.50;2.30;;;;;;;;;;5092502;28;20200;-77
2023/08/12 00:03:48;;;;;;;2.97;2.37;;;;;;;;;;5093547;28;20201;-76
2023/08/12 00:06:15;;;;;;;2.40;2.20;;;;;;;;;;5093182;28;20200;-77
2023/08/12 00:08:41;;;;;;;2.10;2.00;;;;;;;;;;5092869;28;20211;-77
2023/08/12 00:11:08;;;;;;;2.83;2.50;;;;;;;;;;5092597;28;20196;-77
2023/08/12 00:13:35;;;;;;;2.30;2.10;;;;;;;;;;5093324;28;20261;-77
2023/08/12 00:16:02;;;;;;;2.20;2.10;;;;;;;;;;5092245;28;20200;-77
2023/08/12 00:18:30;;;;;;;2.47;2.27;;;;;;;;;;5092156;28;20222;-76
2023/08/12 00:20:57;;;;;;;2.27;2.07;;;;;;;;;;5092673;28;20199;-76
2023/08/12 00:23:24;;;;;;;2.60;2.40;;;;;;;;;;5093134;28;20196;-77
2023/08/12 00:25:51;;;;;;;5.43;2.73;;;;;;;;;;5092484;28;20222;-76
2023/08/12 00:28:18;;;;;;;2.93;2.20;;;;;;;;;;5092482;28;20235;-77
2023/08/12 00:30:45;;;;;;;2.33;2.13;;;;;;;;;;5092279;28;20200;-77
2023/08/12 00:33:11;;;;;;;3.00;2.73;;;;;;;;;;5091972;28;20196;-77
2023/08/12 00:35:40;;;;;;;3.70;2.53;;;;;;;;;;5091971;28;20196;-76
2023/08/12 00:38:06;;;;;;;3.30;2.70;;;;;;;;;;5092558;28;20224;-76
2023/08/12 00:40:33;;;;;;;2.60;2.40;;;;;;;;;;5092621;28;20192;-76
2023/08/12 00:43:00;;;;;;;3.17;2.00;;;;;;;;;;5091843;28;20203;-76
2023/08/12 00:45:27;;;;;;;2.77;2.27;;;;;;;;;;5091823;28;20200;-76
2023/08/12 00:47:54;;;;;;;2.70;2.20;;;;;;;;;;5092254;28;20573;-77
2023/08/12 00:50:21;;;;;;;2.83;2.47;;;;;;;;;;5092298;28;20229;-77
2023/08/12 00:52:49;;;;;;;2.37;2.17;;;;;;;;;;5091949;28;20297;-76
2023/08/12 00:55:16;;;;;;;2.30;2.10;;;;;;;;;;5092285;28;20568;-77
2023/08/12 00:57:44;;;;;;;2.73;2.43;;;;;;;;;;5091971;28;20200;-76
2023/08/12 01:00:12;;;;;;;2.43;2.20;;;;;;;;;;5098535;28;20571;-76
2023/08/12 01:02:39;;;;;;;2.17;1.97;;;;;;;;;;5098556;28;20593;-77
2023/08/12 01:05:07;;;;;;;2.60;2.40;;;;;;;;;;5098679;28;20195;-77
2023/08/12 01:07:34;;;;;;;2.37;2.00;;;;;;;;;;5099008;28;20630;-77
2023/08/12 01:10:02;;;;;;;3.47;2.00;;;;;;;;;;5098945;28;20196;-77
2023/08/12 01:12:33;;;;;;;4.23;2.63;;;;;;;;;;5098317;28;20196;-77
2023/08/12 01:15:04;;;;;;;2.57;2.33;;;;;;;;;;5098357;28;20610;-77
2023/08/12 01:17:32;;;;;;;2.83;2.17;;;;;;;;;;5098326;28;20294;-77
2023/08/12 01:20:00;;;;;;;2.60;2.40;;;;;;;;;;5098323;28;20250;-77
2023/08/12 01:22:28;;;;;;;4.83;2.23;;;;;;;;;;5098404;28;20196;-77
2023/08/12 01:24:56;;;;;;;2.60;2.40;;;;;;;;;;5098245;28;20200;-77
2023/08/12 01:27:24;;;;;;;2.20;2.10;;;;;;;;;;5098666;28;20280;-77
2023/08/12 01:29:52;;;;;;;2.77;2.57;;;;;;;;;;5098437;28;20208;-77
2023/08/12 01:32:24;;;;;;;2.40;2.20;;;;;;;;;;5098202;28;20207;-77
2023/08/12 01:34:54;;;;;;;2.40;2.20;;;;;;;;;;5098274;28;20196;-77
2023/08/12 01:37:25;;;;;;;3.70;2.47;;;;;;;;;;5098439;28;20200;-77
2023/08/12 01:39:53;;;;;;;2.23;2.03;;;;;;;;;;5098862;28;20249;-77
2023/08/12 01:42:22;;;;;;;2.43;2.23;;;;;;;;;;5106202;28;20271;-77
2023/08/12 01:44:49;;;;;;;4.07;2.73;;;;;;;;;;5118884;28;20195;-77
2023/08/12 01:47:16;;;;;;;3.90;2.33;;;;;;;;;;5118567;28;20199;-77
2023/08/12 01:49:42;;;;;;;2.17;1.97;;;;;;;;;;5118386;28;20199;-77
2023/08/12 01:52:09;;;;;;;2.27;2.10;;;;;;;;;;5118732;28;20230;-77
2023/08/12 01:54:36;;;;;;;2.23;2.03;;;;;;;;;;5118941;28;20200;-77
2023/08/12 01:57:05;;;;;;;2.67;2.37;;;;;;;;;;5118890;28;20199;-77
2023/08/12 01:59:33;;;;;;;2.60;2.40;;;;;;;;;;5118339;28;20693;-77
2023/08/12 02:02:00;;;;;;;2.50;2.30;;;;;;;;;;5118328;28;20729;-77
2023/08/12 02:04:27;;;;;;;2.67;2.47;;;;;;;;;;5118986;28;20210;-77
2023/08/12 02:06:54;;;;;;;3.40;2.17;;;;;;;;;;5118364;28;20203;-77
2023/08/12 02:09:21;;;;;;;2.97;2.40;;;;;;;;;;5118350;28;21621;-77
2023/08/12 02:11:48;;;;;;;2.50;2.10;;;;;;;;;;5114260;28;20200;-77
2023/08/12 02:14:15;;;;;;;3.57;2.47;;;;;;;;;;5115015;28;20206;-77
2023/08/12 02:16:43;;;;;;;2.30;2.10;;;;;;;;;;5114905;28;20187;-77
2023/08/12 02:19:09;;;;;;;2.30;2.10;;;;;;;;;;5115401;28;20615;-77
2023/08/12 02:21:36;;;;;;;2.33;2.13;;;;;;;;;;5114902;28;20199;-77
2023/08/12 02:24:03;;;;;;;2.40;2.20;;;;;;;;;;5115446;28;20192;-77
2023/08/12 02:26:30;;;;;;;2.43;2.20;;;;;;;;;;5115139;28;20214;-77
2023/08/12 02:28:57;;;;;;;2.80;2.33;;;;;;;;;;5114827;28;20199;-77
2023/08/12 02:31:24;;;;;;;2.83;2.53;;;;;;;;;;5114648;28;20202;-77
2023/08/12 02:33:52;;;;;;;2.77;2.20;;;;;;;;;;5114644;28;20195;-77
2023/08/12 02:36:19;;;;;;;2.50;2.30;;;;;;;;;;5114879;28;20187;-77
2023/08/12 02:38:46;;;;;;;3.67;2.80;;;;;;;;;;5114930;28;20227;-77
2023/08/12 02:41:13;;;;;;;2.37;2.20;;;;;;;;;;5114327;28;20200;-77
2023/08/12 02:43:39;;;;;;;2.57;2.20;;;;;;;;;;5114451;28;20662;-77
2023/08/12 02:46:06;;;;;;;2.67;2.47;;;;;;;;;;5114355;28;20202;-77
2023/08/12 02:48:33;;;;;;;2.90;2.43;;;;;;;;;;5114624;28;20211;-77
2023/08/12 02:51:01;;;;;;;2.53;2.33;;;;;;;;;;5114582;28;20187;-77
2023/08/12 02:53:28;;;;;;;2.43;2.10;;;;;;;;;;5114451;28;20231;-77
2023/08/12 02:55:55;;;;;;;2.60;2.40;;;;;;;;;;5114133;28;20203;-77
2023/08/12 02:58:22;;;;;;;2.63;2.40;;;;;;;;;;5114379;28;20200;-77
2023/08/12 03:00:48;;;;;;;3.77;2.87;;;;;;;;;;5114117;28;20666;-77
2023/08/12 03:03:16;;;;;;;4.27;2.70;;;;;;;;;;5114051;28;20206;-77
2023/08/12 03:05:43;;;;;;;4.17;2.57;;;;;;;;;;5114008;28;20684;-77
2023/08/12 03:08:11;;;;;;;2.53;2.33;;;;;;;;;;5113909;28;20206;-77
2023/08/12 03:10:39;;;;;;;5.77;2.83;;;;;;;;;;5113915;28;20196;-77
2023/08/12 03:13:05;;;;;;;2.77;2.57;;;;;;;;;;5113888;28;20191;-77
2023/08/12 03:15:32;;;;;;;3.20;2.63;;;;;;;;;;5113645;28;20196;-77
2023/08/12 03:17:59;;;;;;;2.97;2.67;;;;;;;;;;5113793;28;20202;-77
2023/08/12 03:20:26;;;;;;;2.83;2.43;;;;;;;;;;5113714;28;20219;-77
2023/08/12 03:22:52;;;;;;;2.70;2.50;;;;;;;;;;5112494;28;21306;-77
2023/08/12 03:25:20;;;;;;;10.07;2.33;;;;;;;;;;5113615;28;20661;-77
2023/08/12 03:27:47;;;;;;;2.43;2.23;;;;;;;;;;5113850;28;20579;-77
2023/08/12 03:30:14;;;;;;;2.93;2.30;;;;;;;;;;5114496;28;20199;-77
2023/08/12 03:32:41;;;;;;;2.77;2.23;;;;;;;;;;5113760;28;20202;-77
2023/08/12 03:35:08;;;;;;;2.87;2.57;;;;;;;;;;5113560;28;20196;-77
2023/08/12 03:37:35;;;;;;;2.77;2.57;;;;;;;;;;5113760;28;20200;-77
2023/08/12 03:40:03;;;;;;;2.53;2.33;;;;;;;;;;5113545;28;20223;-77
2023/08/12 03:42:31;;;;;;;4.67;2.63;;;;;;;;;;5113337;28;20286;-77
2023/08/12 03:44:57;;;;;;;6.27;2.80;;;;;;;;;;5113356;28;20201;-77
2023/08/12 03:47:25;;;;;;;2.30;2.07;;;;;;;;;;5112021;28;20211;-77
2023/08/12 03:49:53;;;;;;;3.27;2.40;;;;;;;;;;5113163;28;20227;-77
2023/08/12 03:52:20;;;;;;;7.43;2.40;;;;;;;;;;5112905;28;20203;-77
2023/08/12 03:54:47;;;;;;;2.43;2.23;;;;;;;;;;5113029;28;20198;-77
2023/08/12 03:57:13;;;;;;;2.37;2.17;;;;;;;;;;5111983;28;20199;-77
2023/08/12 03:59:42;;;;;;;2.70;2.50;;;;;;;;;;5113004;28;20219;-77
2023/08/12 04:02:08;;;;;;;3.10;2.67;;;;;;;;;;5112949;28;20195;-77
2023/08/12 04:04:35;;;;;;;2.63;2.43;;;;;;;;;;5112852;28;20196;-77
2023/08/12 04:07:02;;;;;;;2.57;2.37;;;;;;;;;;5112746;28;20199;-77
2023/08/12 04:09:29;;;;;;;2.67;2.43;;;;;;;;;;5112903;28;20199;-77
2023/08/12 04:11:56;;;;;;;3.63;2.97;;;;;;;;;;5111298;28;20187;-77
2023/08/12 04:14:23;;;;;;;4.57;2.70;;;;;;;;;;5113076;28;20199;-76
2023/08/12 04:16:51;;;;;;;3.00;2.10;;;;;;;;;;5113136;28;20203;-77
2023/08/12 04:19:17;;;;;;;5.87;2.57;;;;;;;;;;5091135;28;20224;-77
2023/08/12 04:21:46;;;;;;;3.13;2.27;;;;;;;;;;5092048;28;20206;-77
2023/08/12 04:24:13;;;;;;;3.37;2.40;;;;;;;;;;5092459;28;20196;-77
2023/08/12 04:26:40;;;;;;;2.63;2.43;;;;;;;;;;5090747;28;20287;-77
2023/08/12 04:29:07;;;;;;;2.77;2.57;;;;;;;;;;5093205;28;20228;-77
2023/08/12 04:31:34;;;;;;;3.47;2.40;;;;;;;;;;5092150;28;20192;-78
2023/08/12 04:34:03;;;;;;;9.50;2.73;;;;;;;;;;5092292;28;20207;-76
2023/08/12 04:36:33;;;;;;;8.27;3.00;;;;;;;;;;5103000;28;20585;-76
2023/08/12 04:39:00;;;;;;;3.27;2.80;;;;;;;;;;5111172;28;20215;-76
2023/08/12 04:41:27;;;;;;;4.40;3.10;;;;;;;;;;5112532;28;20221;-76
2023/08/12 04:43:53;;;;;;;5.90;3.10;;;;;;;;;;5111189;28;20199;-76
2023/08/12 04:46:20;;;;;;;3.73;2.70;;;;;;;;;;5112337;28;20235;-76
2023/08/12 04:48:47;;;;;;;2.73;2.53;;;;;;;;;;5112176;28;20230;-76
2023/08/12 04:51:15;;;;;;;3.30;3.00;;;;;;;;;;5112706;28;20203;-76
2023/08/12 04:53:42;;;;;;;3.80;2.80;;;;;;;;;;5110786;28;20226;-76
2023/08/12 04:56:09;;;;;;;10.20;2.77;;;;;;;;;;5103255;28;20253;-76
2023/08/12 04:58:35;;;;;;;3.23;2.93;;;;;;;;;;5095769;28;20229;-76
2023/08/12 05:01:02;;;;;;;5.33;3.33;;;;;;;;;;5111637;28;20215;-76
2023/08/12 05:03:29;;;;;;;6.37;3.03;;;;;;;;;;5091626;28;20228;-76
2023/08/12 05:05:56;;;;;;;3.17;2.97;;;;;;;;;;5092281;28;20204;-76
2023/08/12 05:08:25;;;;;;;3.20;2.77;;;;;;;;;;5091622;28;20196;-76
2023/08/12 05:10:52;;;;;;;4.30;2.67;;;;;;;;;;5092091;28;20199;-76
2023/08/12 05:13:19;;;;;;;3.03;2.50;;;;;;;;;;5108048;28;20195;-76
2023/08/12 05:15:47;;;;;;;3.27;2.97;;;;;;;;;;5111699;28;20209;-76
2023/08/12 05:18:14;;;;;;;5.00;2.50;;;;;;;;;;5093969;28;20196;-76
2023/08/12 05:20:41;;;;;;;2.90;2.47;;;;;;;;;;5111862;28;20222;-76
2023/08/12 05:23:08;;;;;;;2.70;2.50;;;;;;;;;;5111860;28;20241;-76
2023/08/12 05:25:37;;;;;;;4.50;2.80;;;;;;;;;;5111524;28;20198;-76
2023/08/12 05:28:04;;;;;;;2.83;2.63;;;;;;;;;;5076790;28;20203;-76
2023/08/12 05:30:31;;;;;;;2.27;2.17;;;;;;;;;;5112016;28;20199;-76
2023/08/12 05:32:58;;;;;;;4.13;2.10;;;;;;;;;;5112421;28;20199;-76
2023/08/12 05:35:25;;;;;;;3.30;2.40;;;;;;;;;;5110354;28;20192;-76
2023/08/12 05:37:52;;;;;;;3.77;2.67;;;;;;;;;;5112035;28;20234;-77
2023/08/12 05:40:19;;;;;;;4.60;2.33;;;;;;;;;;5094213;28;20223;-76
2023/08/12 05:42:47;;;;;;;5.17;2.73;;;;;;;;;;5091392;28;20207;-76
2023/08/12 05:45:14;;;;;;;2.00;1.83;;;;;;;;;;5091642;28;20685;-76
2023/08/12 05:47:40;;;;;;;2.40;2.20;;;;;;;;;;5106346;28;20616;-76
2023/08/12 05:50:08;;;;;;;2.53;2.30;;;;;;;;;;5116109;28;20282;-76
2023/08/12 05:52:35;;;;;;;2.40;2.07;;;;;;;;;;5115780;28;20223;-76
2023/08/12 05:55:01;;;;;;;2.53;2.10;;;;;;;;;;5115606;28;20203;-76
2023/08/12 05:57:29;;;;;;;4.57;3.23;;;;;;;;;;5115462;28;20657;-76
2023/08/12 05:59:57;;;;;;;9.00;3.20;;;;;;;;;;5113808;28;20216;-76
2023/08/12 06:02:24;;;;;;;2.43;1.93;;;;;;;;;;5114463;28;20264;-76
2023/08/12 06:04:51;;;;;;;2.43;2.23;;;;;;;;;;5115186;28;20738;-76
2023/08/12 06:07:18;;;;;;;4.00;2.27;;;;;;;;;;5115110;28;20199;-76
2023/08/12 06:09:45;;;;;;;8.27;2.50;;;;;;;;;;5115552;28;20195;-77
2023/08/12 06:12:11;;;;;;;2.60;2.40;;;;;;;;;;5113498;28;20192;-77
2023/08/12 06:14:39;;;;;;;3.77;2.43;;;;;;;;;;5106721;28;20197;-77
2023/08/12 06:17:07;;;;;;;2.50;2.30;;;;;;;;;;5094539;28;20291;-77
2023/08/12 06:19:34;;;;;;;2.27;2.07;;;;;;;;;;5094516;28;20663;-77
2023/08/12 06:22:00;;;;;;;2.30;2.10;;;;;;;;;;5094511;28;20196;-77
2023/08/12 06:24:28;;;;;;;3.60;2.57;;;;;;;;;;5094893;28;20260;-76
2023/08/12 06:26:54;;;;;;;3.00;2.70;;;;;;;;;;5094641;28;20207;-77
2023/08/12 06:29:21;;;;;;;2.67;2.47;;;;;;;;;;5094334;28;20204;-77
2023/08/12 06:31:48;;;;;;;3.00;2.70;;;;;;;;;;5094405;28;20250;-77
2023/08/12 06:34:16;;;;;;;2.57;2.30;;;;;;;;;;5094702;28;20192;-77
2023/08/12 06:36:43;;;;;;;3.83;2.30;;;;;;;;;;5094222;28;20222;-77
2023/08/12 06:39:09;;;;;;;5.33;2.40;;;;;;;;;;5106963;28;20192;-77
2023/08/12 06:41:36;;;;;;;2.53;2.30;;;;;;;;;;5114227;28;20223;-77
2023/08/12 06:44:04;;;;;;;2.47;2.20;;;;;;;;;;5114996;28;20603;-77
2023/08/12 06:46:31;;;;;;;4.97;2.07;;;;;;;;;;5114564;28;20194;-78
2023/08/12 06:48:59;;;;;;;7.13;2.23;;;;;;;;;;5114348;28;20195;-77
2023/08/12 06:51:27;;;;;;;2.30;2.10;;;;;;;;;;5114320;28;20204;-77
2023/08/12 06:53:54;;;;;;;2.23;2.13;;;;;;;;;;5114632;28;20226;-77
2023/08/12 06:56:20;;;;;;;3.77;2.17;;;;;;;;;;5113996;28;20210;-77
2023/08/12 06:58:47;;;;;;;2.63;2.10;;;;;;;;;;5115334;28;20199;-77
2023/08/12 07:01:14;;;;;;;1.90;1.70;;;;;;;;;;5112328;28;20219;-78
2023/08/12 07:03:40;;;;;;;1.83;1.73;;;;;;;;;;5114098;28;20210;-77
2023/08/12 07:06:07;;;;;;;2.10;2.00;;;;;;;;;;5114008;28;20195;-77
2023/08/12 07:08:35;;;;;;;2.17;2.07;;;;;;;;;;5113972;28;20199;-76
2023/08/12 07:11:02;;;;;;;1.77;1.67;;;;;;;;;;5114474;28;20191;-77
2023/08/12 07:13:29;;;;;;;2.77;2.07;;;;;;;;;;5113819;28;20210;-77
2023/08/12 07:15:56;;;;;;;3.50;1.90;;;;;;;;;;5113852;28;20206;-77
2023/08/12 07:18:23;;;;;;;3.33;2.13;;;;;;;;;;5114164;28;20198;-77
2023/08/12 07:20:50;;;;;;;2.20;2.00;;;;;;;;;;5113636;28;20272;-77
2023/08/12 07:23:17;;;;;;;2.10;1.80;;;;;;;;;;5114171;28;20199;-77
2023/08/12 07:25:48;;;;;;;2.17;2.07;;;;;;;;;;5114531;28;20192;-77
2023/08/12 07:28:15;;;;;;;2.27;1.87;;;;;;;;;;5113752;28;20195;-77
2023/08/12 07:30:42;;;;;;;2.07;1.90;;;;;;;;;;5113888;28;20207;-76
2023/08/12 07:33:08;;;;;;;2.47;2.27;;;;;;;;;;5107618;28;20203;-77
2023/08/12 07:35:35;;;;;;;2.17;1.97;;;;;;;;;;5093077;28;20200;-76
2023/08/12 07:38:02;;;;;;;2.50;2.30;;;;;;;;;;5093320;28;20597;-76
2023/08/12 07:40:29;;;;;;;2.03;1.93;;;;;;;;;;5093223;28;20223;-77
2023/08/12 07:42:57;;;;;;;2.20;2.00;;;;;;;;;;5091999;28;20200;-76
2023/08/12 07:45:24;;;;;;;1.80;1.70;;;;;;;;;;5093045;28;20215;-76
2023/08/12 07:47:51;;;;;;;2.00;1.90;;;;;;;;;;5092311;28;20189;-77
2023/08/12 07:50:18;;;;;;;5.53;2.20;;;;;;;;;;5093295;28;20204;-76
2023/08/12 07:52:45;;;;;;;2.57;1.80;;;;;;;;;;5105078;28;20219;-77
2023/08/12 07:55:12;;;;;;;3.47;2.10;;;;;;;;;;5114042;28;20213;-77
2023/08/12 07:57:38;;;;;;;2.00;1.83;;;;;;;;;;5113192;28;20588;-76
2023/08/12 08:00:09;;;;;;;2.43;2.23;;;;;;;;;;5113580;28;20226;-77
2023/08/12 08:02:36;;;;;;;2.53;1.80;;;;;;;;;;5111692;28;20202;-76
2023/08/12 08:05:03;;;;;;;2.13;1.92;;;;;;;;;;5113176;28;20195;-77
2023/08/12 08:07:30;;;;;;;2.43;2.17;;;;;;;;;;5112966;28;20245;-77
2023/08/12 08:09:57;;;;;;;1.90;1.80;;;;;;;;;;5112338;28;20203;-76
2023/08/12 08:12:23;;;;;;;1.83;1.73;;;;;;;;;;5111246;28;20195;-77
2023/08/12 08:14:50;;;;;;;5.00;1.80;;;;;;;;;;5113198;28;20207;-77
2023/08/12 08:17:18;;;;;;;2.92;2.00;;;;;;;;;;5110282;28;20203;-76
2023/08/12 08:19:45;;;;;;;1.77;1.67;;;;;;;;;;5096299;28;20195;-77
2023/08/12 08:22:12;;;;;;;2.00;1.90;;;;;;;;;;5111885;28;20212;-77
2023/08/12 08:24:39;;;;;;;2.00;1.80;;;;;;;;;;5112949;28;20207;-77
2023/08/12 08:27:06;;;;;;;2.55;2.15;;;;;;;;;;5112805;28;20203;-77
2023/08/12 08:29:32;;;;;;;2.08;1.88;;;;;;;;;;5111527;28;20564;-77
2023/08/12 08:31:59;;;;;;;2.40;2.20;;;;;;;;;;5112432;28;20267;-77
2023/08/12 08:34:27;;;;;;;2.85;1.77;;;;;;;;;;5112320;28;20203;-77
2023/08/12 08:36:54;;;;;;;1.83;1.60;;;;;;;;;;5112748;28;20199;-76
2023/08/12 08:39:21;;;;;;;2.28;1.80;;;;;;;;;;5112252;28;20211;-77
2023/08/12 08:41:49;;;;;;;2.50;2.22;;;;;;;;;;5112307;28;20697;-77
2023/08/12 08:44:16;;;;;;;2.28;2.05;;;;;;;;;;5110740;28;20191;-77
2023/08/12 08:46:44;;;;;;;2.22;2.03;;;;;;;;;;5112885;28;20599;-76
2023/08/12 08:49:12;;;;;;;2.35;1.95;;;;;;;;;;5110604;28;20192;-77
2023/08/12 08:51:40;;;;;;;3.38;2.40;;;;;;;;;;5112371;28;20219;-77
2023/08/12 08:54:07;;;;;;;1.88;1.77;;;;;;;;;;5104715;28;20724;-77
2023/08/12 08:56:34;;;;;;;3.90;1.90;;;;;;;;;;5091887;28;20215;-77
2023/08/12 08:59:00;;;;;;;2.58;1.95;;;;;;;;;;5091662;28;20204;-78
2023/08/12 09:01:28;;;;;;;2.35;2.08;;;;;;;;;;5092106;28;20582;-76
2023/08/12 09:03:56;;;;;;;2.03;1.92;;;;;;;;;;5091843;28;20286;-77
2023/08/12 09:06:23;;;;;;;2.33;2.13;;;;;;;;;;5091649;28;20208;-77
2023/08/12 09:08:52;;;;;;;1.98;1.80;;;;;;;;;;5091643;28;20573;-77
2023/08/12 09:11:20;;;;;;;2.40;2.03;;;;;;;;;;5091787;28;20291;-77
2023/08/12 09:13:48;;;;;;;1.75;1.65;;;;;;;;;;5092178;28;20192;-77
2023/08/12 09:16:15;;;;;;;2.08;1.98;;;;;;;;;;5098986;28;20278;-77
2023/08/12 09:18:44;;;;;;;1.90;1.80;;;;;;;;;;5102119;28;20203;-77
2023/08/12 09:21:11;;;;;;;2.70;2.00;;;;;;;;;;5116137;28;20215;-77
2023/08/12 09:23:39;;;;;;;2.20;2.00;;;;;;;;;;5116171;28;20331;-76
2023/08/12 09:26:14;;;;;;;2.15;1.80;;;;;;;;;;5115756;28;20204;-77
2023/08/12 09:28:41;;;;;;;1.60;1.50;;;;;;;;;;5115953;28;20653;-76
2023/08/12 09:31:08;;;;;;;2.05;1.95;;;;;;;;;;5115833;28;20684;-77
2023/08/12 09:33:39;;;;;;;2.72;1.98;;;;;;;;;;5116745;28;20214;-77
2023/08/12 09:36:06;;;;;;;1.90;1.80;;;;;;;;;;5116252;28;20195;-76
2023/08/12 09:38:33;;;;;;;1.80;1.70;;;;;;;;;;5115652;28;20203;-77
2023/08/12 09:41:00;;;;;;;2.28;2.15;;;;;;;;;;5114285;28;20226;-77
2023/08/12 09:43:30;;;;;;;2.13;2.03;;;;;;;;;;5095373;28;20207;-77
2023/08/12 09:45:58;;;;;;;7.18;1.83;;;;;;;;;;5110014;28;20202;-77
2023/08/12 09:48:26;;;;;;;3.28;2.17;;;;;;;;;;5114644;28;20226;-76
2023/08/12 09:50:53;;;;;;;2.33;1.75;;;;;;;;;;5114819;28;20191;-77
2023/08/12 09:53:20;;;;;;;2.85;1.75;;;;;;;;;;5114837;28;20314;-76
2023/08/12 09:55:48;;;;;;;3.28;1.92;;;;;;;;;;5115617;28;20286;-77
2023/08/12 09:58:18;;;;;;;1.55;1.45;;;;;;;;;;5116001;28;20263;-77
2023/08/12 10:00:46;;;;;;;2.33;2.13;;;;;;;;;;5114150;28;20215;-77
2023/08/12 10:03:15;;;;;;;6.05;2.20;;;;;;;;;;5114772;28;20203;-77
2023/08/12 10:05:42;;;;;;;2.30;2.15;;;;;;;;;;5115341;28;20757;-76
2023/08/12 10:08:09;;;;;;;2.20;2.00;;;;;;;;;;5111444;28;20275;-76
2023/08/12 10:10:37;;;;;;;3.03;2.80;;;;;;;;;;5094721;28;20207;-77
2023/08/12 10:13:07;;;;;;;5.25;3.70;;;;;;;;;;5093821;28;20203;-77
2023/08/12 10:15:34;;;;;;;1.63;1.52;;;;;;;;;;5096846;28;20667;-77
2023/08/12 10:18:02;;;;;;;1.90;1.80;;;;;;;;;;5108315;28;20275;-76
2023/08/12 10:20:31;;;;;;;1.88;1.77;;;;;;;;;;5113425;28;20210;-76
2023/08/12 10:22:58;;;;;;;4.28;2.92;;;;;;;;;;5108089;28;20246;-76
2023/08/12 10:25:26;;;;;;;2.60;2.40;;;;;;;;;;5094579;28;20200;-76
2023/08/12 10:27:52;;;;;;;2.15;1.95;;;;;;;;;;5094381;28;20233;-77
2023/08/12 10:30:21;;;;;;;2.78;1.90;;;;;;;;;;5094337;28;20208;-77
2023/08/12 10:32:48;;;;;;;2.05;1.95;;;;;;;;;;5106395;28;20195;-76
2023/08/12 10:35:17;;;;;;;2.10;1.85;;;;;;;;;;5113349;28;20195;-76
2023/08/12 10:37:49;;;;;;;3.30;1.75;;;;;;;;;;5114456;28;20196;-76
2023/08/12 10:40:21;;;;;;;2.03;1.88;;;;;;;;;;5114053;28;20573;-76
2023/08/12 10:42:49;;;;;;;1.90;1.80;;;;;;;;;;5099995;28;20728;-76
2023/08/12 10:45:17;;;;;;;2.00;1.90;;;;;;;;;;5094047;28;20204;-76
2023/08/12 10:47:45;;;;;;;1.70;1.60;;;;;;;;;;5092525;28;20200;-76
2023/08/12 10:50:20;;;;;;;2.20;2.00;;;;;;;;;;5093022;28;20208;-76
2023/08/12 10:52:47;;;;;;;1.73;1.63;;;;;;;;;;5093122;28;20231;-77
2023/08/12 10:55:20;;;;;;;1.98;1.88;;;;;;;;;;5093340;28;20196;-77
2023/08/12 10:57:47;;;;;;;1.98;1.88;;;;;;;;;;5094218;28;20200;-76
2023/08/12 11:00:15;;;;;;;2.40;2.20;;;;;;;;;;5093838;28;20205;-76
2023/08/12 11:02:45;;;;;;;2.65;1.95;;;;;;;;;;5104424;28;20271;-76
2023/08/12 11:05:13;;;;;;;1.63;1.52;;;;;;;;;;5114064;28;20195;-76
2023/08/12 11:07:42;;;;;;;2.00;1.80;;;;;;;;;;5112694;28;20203;-76
2023/08/12 11:10:14;;;;;;;1.92;1.83;;;;;;;;;;5109977;28;20195;-76
2023/08/12 11:12:42;;;;;;;2.20;2.00;;;;;;;;;;5093441;28;20566;-76
2023/08/12 11:15:10;;;;;;;1.98;1.88;;;;;;;;;;5093595;28;20204;-75
2023/08/12 11:17:38;;;;;;;3.45;2.08;;;;;;;;;;5093858;28;20200;-76
2023/08/12 11:20:06;;;;;;;3.00;2.15;;;;;;;;;;5093758;28;20196;-76
2023/08/12 11:22:36;;;;;;;2.20;2.00;;;;;;;;;;5093159;28;20223;-76
2023/08/12 11:25:08;;;;;;;2.17;2.03;;;;;;;;;;5093328;28;20196;-76
2023/08/12 11:27:41;;;;;;;1.88;1.70;;;;;;;;;;5093388;28;20214;-76
2023/08/12 11:30:10;;;;;;;4.93;1.85;;;;;;;;;;5093533;28;20211;-76
2023/08/12 11:32:37;;;;;;;1.60;1.50;;;;;;;;;;5093506;28;20196;-76
2023/08/12 11:35:06;;;;;;;1.98;1.88;;;;;;;;;;5093550;28;20574;-76
2023/08/12 11:37:33;;;;;;;2.28;1.95;;;;;;;;;;5092854;28;20192;-76
2023/08/12 11:40:00;;;;;;;5.22;1.92;;;;;;;;;;5093444;28;20200;-76
2023/08/12 11:42:28;;;;;;;2.20;2.08;;;;;;;;;;5092330;28;20223;-77
2023/08/12 11:44:55;;;;;;;4.28;2.05;;;;;;;;;;5093343;28;20657;-76
2023/08/12 11:47:22;;;;;;;1.85;1.60;;;;;;;;;;5091496;28;20204;-76
2023/08/12 11:49:48;;;;;;;2.03;1.83;;;;;;;;;;5097008;28;20191;-76
2023/08/12 11:52:16;;;;;;;2.03;1.70;;;;;;;;;;5112259;28;20196;-76
2023/08/12 11:54:43;;;;;;;2.03;1.92;;;;;;;;;;5113525;28;20195;-76
2023/08/12 11:57:09;;;;;;;4.40;1.80;;;;;;;;;;5113026;28;20599;-76
2023/08/12 11:59:38;;;;;;;1.70;1.60;;;;;;;;;;5113050;28;20196;-76
2023/08/12 12:02:05;;;;;;;2.47;2.15;;;;;;;;;;5111634;28;20226;-76
2023/08/12 12:04:32;;;;;;;2.08;1.88;;;;;;;;;;5112244;28;20203;-76
2023/08/12 12:07:00;;;;;;;1.88;1.77;;;;;;;;;;5111798;28;20202;-76
2023/08/12 12:09:27;;;;;;;1.77;1.67;;;;;;;;;;5111964;28;20199;-76
2023/08/12 12:11:54;;;;;;;1.83;1.63;;;;;;;;;;5111901;28;20252;-76
2023/08/12 12:14:22;;;;;;;2.00;1.90;;;;;;;;;;5111651;28;20744;-76
2023/08/12 12:16:50;;;;;;;3.70;2.15;;;;;;;;;;5111795;28;20654;-76
2023/08/12 12:19:19;;;;;;;2.47;2.03;;;;;;;;;;5111693;28;20222;-76
2023/08/12 12:21:47;;;;;;;2.88;1.90;;;;;;;;;;5112332;28;20226;-76
2023/08/12 12:24:14;;;;;;;2.22;2.03;;;;;;;;;;5112286;28;20228;-76
2023/08/12 12:26:41;;;;;;;2.15;2.05;;;;;;;;;;5112995;28;20657;-76
2023/08/12 12:29:11;;;;;;;2.35;1.98;;;;;;;;;;5112756;28;20199;-76
2023/08/12 12:31:38;;;;;;;1.70;1.60;;;;;;;;;;5113257;28;20736;-76
2023/08/12 12:34:07;;;;;;;2.55;1.88;;;;;;;;;;5111151;28;20580;-76
2023/08/12 12:36:36;;;;;;;3.35;2.03;;;;;;;;;;5112332;28;20195;-76
2023/08/12 12:39:02;;;;;;;2.50;2.30;;;;;;;;;;5113404;28;20218;-76
2023/08/12 12:41:29;;;;;;;2.50;2.30;;;;;;;;;;5110679;28;20618;-76
2023/08/12 12:43:56;;;;;;;2.85;2.50;;;;;;;;;;5111401;28;20615;-76
2023/08/12 12:46:23;;;;;;;2.25;2.05;;;;;;;;;;5111145;28;20552;-76
2023/08/12 12:48:49;;;;;;;2.17;1.98;;;;;;;;;;5111703;28;20188;-76
2023/08/12 12:51:18;;;;;;;2.22;1.75;;;;;;;;;;5112340;28;20199;-76
2023/08/12 12:53:44;;;;;;;2.33;2.10;;;;;;;;;;5112648;28;20218;-76
2023/08/12 12:56:11;;;;;;;1.88;1.77;;;;;;;;;;5110234;28;20199;-77
2023/08/12 12:58:38;;;;;;;1.90;1.80;;;;;;;;;;5112528;28;20203;-76
2023/08/12 13:01:06;;;;;;;2.28;2.05;;;;;;;;;;5112558;28;20209;-76
2023/08/12 13:03:33;;;;;;;2.25;2.13;;;;;;;;;;5112232;28;20223;-76
2023/08/12 13:06:01;;;;;;;2.10;1.92;;;;;;;;;;5112095;28;20191;-76
2023/08/12 13:08:29;;;;;;;2.45;2.25;;;;;;;;;;5110685;28;20565;-76
2023/08/12 13:10:56;;;;;;;2.00;1.90;;;;;;;;;;5111993;28;20688;-75
2023/08/12 13:13:23;;;;;;;2.10;1.90;;;;;;;;;;5110493;28;20199;-76
2023/08/12 13:15:50;;;;;;;1.88;1.77;;;;;;;;;;5110675;28;20200;-76
2023/08/12 13:18:17;;;;;;;2.25;2.05;;;;;;;;;;5111035;28;20206;-76
2023/08/12 13:20:44;;;;;;;1.90;1.80;;;;;;;;;;5111473;28;20734;-76
2023/08/12 13:23:11;;;;;;;2.13;2.00;;;;;;;;;;5110385;28;20272;-76
2023/08/12 13:25:40;;;;;;;2.10;2.00;;;;;;;;;;5102435;28;20204;-77
2023/08/12 13:28:07;;;;;;;2.17;1.98;;;;;;;;;;5111821;28;20661;-76
2023/08/12 13:30:36;;;;;;;2.75;1.70;;;;;;;;;;5111802;28;20206;-76
2023/08/12 13:33:04;;;;;;;2.65;2.10;;;;;;;;;;5111809;28;20662;-76
2023/08/12 13:35:31;;;;;;;1.73;1.63;;;;;;;;;;5112093;28;20199;-76
2023/08/12 13:37:57;;;;;;;2.05;1.88;;;;;;;;;;5102145;28;20627;-76
2023/08/12 13:40:25;;;;;;;2.50;2.30;;;;;;;;;;5093640;28;20204;-76
2023/08/12 13:42:53;;;;;;;2.72;1.98;;;;;;;;;;5111540;28;20605;-76
2023/08/12 13:45:21;;;;;;;2.30;2.20;;;;;;;;;;5111782;28;20204;-75
2023/08/12 13:47:47;;;;;;;2.20;2.10;;;;;;;;;;5112151;28;20199;-76
2023/08/12 13:50:14;;;;;;;1.98;1.88;;;;;;;;;;5111566;28;20199;-75
2023/08/12 13:52:41;;;;;;;2.17;1.88;;;;;;;;;;5111521;28;20234;-75
2023/08/12 13:55:09;;;;;;;4.88;2.40;;;;;;;;;;5111853;28;20577;-76
2023/08/12 13:57:35;;;;;;;2.90;2.60;;;;;;;;;;5111707;28;20658;-75
2023/08/12 14:00:09;;;;;;;2.30;2.10;;;;;;;;;;5112159;28;20199;-75
2023/08/12 14:02:36;;;;;;;3.30;2.10;;;;;;;;;;5112564;28;20211;-75
2023/08/12 14:05:03;;;;;;;2.00;1.90;;;;;;;;;;5111566;28;20206;-75
2023/08/12 14:07:30;;;;;;;1.75;1.65;;;;;;;;;;5113935;28;20203;-75
2023/08/12 14:09:57;;;;;;;1.85;1.75;;;;;;;;;;5113293;28;20291;-75
2023/08/12 14:12:24;;;;;;;3.13;2.08;;;;;;;;;;5114475;28;20207;-75
2023/08/12 14:14:51;;;;;;;2.00;1.90;;;;;;;;;;5114113;28;20199;-76
2023/08/12 14:17:22;;;;;;;2.10;2.00;;;;;;;;;;5096679;28;20207;-75
2023/08/12 14:19:50;;;;;;;2.50;2.30;;;;;;;;;;5095142;28;20624;-75
2023/08/12 14:22:16;;;;;;;3.83;1.83;;;;;;;;;;5105375;28;20591;-75
2023/08/12 14:24:43;;;;;;;4.32;4.00;;;;;;;;;;5113217;28;20199;-74
2023/08/12 14:27:10;;;;;;;4.43;3.47;;;;;;;;;;5113684;28;20199;-75
2023/08/12 14:29:37;;;;;;;1.77;1.67;;;;;;;;;;5113974;28;20196;-73
2023/08/12 14:32:04;;;;;;;2.05;1.95;;;;;;;;;;5111066;28;20203;-74
2023/08/12 14:34:33;;;;;;;2.05;1.95;;;;;;;;;;5093705;28;20305;-74
2023/08/12 14:37:01;;;;;;;2.05;1.90;;;;;;;;;;5099762;28;20654;-74
2023/08/12 14:39:28;;;;;;;2.60;2.40;;;;;;;;;;5104548;28;20196;-75
2023/08/12 14:41:55;;;;;;;2.92;2.15;;;;;;;;;;5113383;28;20210;-75
2023/08/12 14:44:21;;;;;;;3.15;1.98;;;;;;;;;;5110850;28;20653;-74